sensor_id;sensor_type;location;lat;lon;timestamp;P1;durP1;ratioP1;P2;durP2;ratioP2
14686;SDS011;7431;49.440;11.084;2023-05-07T00:01:32;10.57;;;6.00;;
14686;SDS011;7431;49.440;11.084;2023-05-07T00:03:58;4.47;;;4.07;;
14686;SDS011;7431;49.440;11.084;2023-05-07T00:06:24;4.93;;;4.43;;
14686;SDS011;7431;49.440;11.084;2023-05-07T00:08:50;4.93;;;4.03;;
14686;SDS011;7431;49.440;11.084;2023-05-07T00:11:17;6.30;;;4.15;;
14686;SDS011;7431;49.440;11.084;2023-05-07T00:13:42;4.07;;;3.65;;
14686;SDS011;7431;49.440;11.084;2023-05-07T00:16:08;4.20;;;3.80;;
14686;SDS011;7431;49.440;11.084;2023-05-07T00:18:34;4.30;;;3.53;;
14686;SDS011;7431;49.440;11.084;2023-05-07T00:21:00;3.72;;;3.03;;
14686;SDS011;7431;49.440;11.084;2023-05-07T00:23:26;4.10;;;2.75;;
14686;SDS011;7431;49.440;11.084;2023-05-07T00:25:53;4.43;;;2.90;;
14686;SDS011;7431;49.440;11.084;2023-05-07T00:28:19;6.35;;;4.28;;
14686;SDS011;7431;49.440;11.084;2023-05-07T00:30:44;3.37;;;3.07;;
14686;SDS011;7431;49.440;11.084;2023-05-07T00:33:10;4.18;;;2.90;;
14686;SDS011;7431;49.440;11.084;2023-05-07T00:35:36;3.40;;;3.10;;
14686;SDS011;7431;49.440;11.084;2023-05-07T00:38:02;2.90;;;2.60;;
14686;SDS011;7431;49.440;11.084;2023-05-07T00:40:28;3.17;;;2.88;;
14686;SDS011;7431;49.440;11.084;2023-05-07T00:42:54;3.85;;;3.25;;
14686;SDS011;7431;49.440;11.084;2023-05-07T00:45:23;3.30;;;2.95;;
14686;SDS011;7431;49.440;11.084;2023-05-07T00:47:51;2.80;;;2.50;;
14686;SDS011;7431;49.440;11.084;2023-05-07T00:50:17;3.38;;;2.88;;
14686;SDS011;7431;49.440;11.084;2023-05-07T00:52:44;3.30;;;2.60;;
14686;SDS011;7431;49.440;11.084;2023-05-07T00:55:10;3.78;;;3.00;;
14686;SDS011;7431;49.440;11.084;2023-05-07T00:57:36;5.55;;;2.90;;
14686;SDS011;7431;49.440;11.084;2023-05-07T01:00:06;4.05;;;2.88;;
14686;SDS011;7431;49.440;11.084;2023-05-07T01:02:33;2.92;;;2.72;;
14686;SDS011;7431;49.440;11.084;2023-05-07T01:05:00;4.78;;;2.90;;
14686;SDS011;7431;49.440;11.084;2023-05-07T01:07:26;3.88;;;2.75;;
14686;SDS011;7431;49.440;11.084;2023-05-07T01:09:53;4.10;;;2.90;;
14686;SDS011;7431;49.440;11.084;2023-05-07T01:12:19;3.50;;;3.00;;
14686;SDS011;7431;49.440;11.084;2023-05-07T01:14:45;3.25;;;2.67;;
14686;SDS011;7431;49.440;11.084;2023-05-07T01:17:11;3.23;;;2.60;;
14686;SDS011;7431;49.440;11.084;2023-05-07T01:19:37;4.00;;;2.60;;
14686;SDS011;7431;49.440;11.084;2023-05-07T01:22:03;3.00;;;2.67;;
14686;SDS011;7431;49.440;11.084;2023-05-07T01:24:31;3.20;;;2.90;;
14686;SDS011;7431;49.440;11.084;2023-05-07T01:26:58;3.05;;;2.80;;
14686;SDS011;7431;49.440;11.084;2023-05-07T01:29:26;3.35;;;3.05;;
14686;SDS011;7431;49.440;11.084;2023-05-07T01:31:52;3.05;;;2.83;;
14686;SDS011;7431;49.440;11.084;2023-05-07T01:34:18;3.47;;;2.80;;
14686;SDS011;7431;49.440;11.084;2023-05-07T01:36:46;2.63;;;2.42;;
14686;SDS011;7431;49.440;11.084;2023-05-07T01:39:13;4.82;;;3.10;;
14686;SDS011;7431;49.440;11.084;2023-05-07T01:41:40;3.03;;;2.60;;
14686;SDS011;7431;49.440;11.084;2023-05-07T01:44:06;3.50;;;2.90;;
14686;SDS011;7431;49.440;11.084;2023-05-07T01:46:33;3.13;;;2.83;;
14686;SDS011;7431;49.440;11.084;2023-05-07T01:49:00;4.57;;;2.88;;
14686;SDS011;7431;49.440;11.084;2023-05-07T01:51:26;3.22;;;2.92;;
14686;SDS011;7431;49.440;11.084;2023-05-07T01:53:52;3.00;;;2.70;;
14686;SDS011;7431;49.440;11.084;2023-05-07T01:56:18;3.08;;;2.88;;
14686;SDS011;7431;49.440;11.084;2023-05-07T01:58:48;3.50;;;2.92;;
14686;SDS011;7431;49.440;11.084;2023-05-07T02:01:16;3.53;;;3.13;;
14686;SDS011;7431;49.440;11.084;2023-05-07T02:03:41;4.28;;;2.97;;
14686;SDS011;7431;49.440;11.084;2023-05-07T02:06:07;3.25;;;2.90;;
14686;SDS011;7431;49.440;11.084;2023-05-07T02:08:33;3.38;;;3.00;;
14686;SDS011;7431;49.440;11.084;2023-05-07T02:10:59;3.55;;;3.25;;
14686;SDS011;7431;49.440;11.084;2023-05-07T02:13:29;3.45;;;3.15;;
14686;SDS011;7431;49.440;11.084;2023-05-07T02:15:55;3.13;;;2.83;;
14686;SDS011;7431;49.440;11.084;2023-05-07T02:18:21;3.72;;;3.42;;
14686;SDS011;7431;49.440;11.084;2023-05-07T02:20:47;3.93;;;3.30;;
14686;SDS011;7431;49.440;11.084;2023-05-07T02:23:13;3.45;;;3.15;;
14686;SDS011;7431;49.440;11.084;2023-05-07T02:25:39;3.65;;;3.05;;
14686;SDS011;7431;49.440;11.084;2023-05-07T02:28:05;3.17;;;2.95;;
14686;SDS011;7431;49.440;11.084;2023-05-07T02:30:31;3.88;;;3.30;;
14686;SDS011;7431;49.440;11.084;2023-05-07T02:32:58;3.70;;;3.40;;
14686;SDS011;7431;49.440;11.084;2023-05-07T02:35:24;4.25;;;3.42;;
14686;SDS011;7431;49.440;11.084;2023-05-07T02:37:51;5.00;;;3.40;;
14686;SDS011;7431;49.440;11.084;2023-05-07T02:40:17;3.63;;;3.30;;
14686;SDS011;7431;49.440;11.084;2023-05-07T02:42:43;3.67;;;3.38;;
14686;SDS011;7431;49.440;11.084;2023-05-07T02:45:09;4.20;;;3.70;;
14686;SDS011;7431;49.440;11.084;2023-05-07T02:47:35;4.80;;;3.83;;
14686;SDS011;7431;49.440;11.084;2023-05-07T02:50:01;3.95;;;3.55;;
14686;SDS011;7431;49.440;11.084;2023-05-07T02:52:27;3.88;;;3.58;;
14686;SDS011;7431;49.440;11.084;2023-05-07T02:54:53;5.63;;;4.25;;
14686;SDS011;7431;49.440;11.084;2023-05-07T02:57:19;4.78;;;4.25;;
14686;SDS011;7431;49.440;11.084;2023-05-07T02:59:45;4.40;;;4.00;;
14686;SDS011;7431;49.440;11.084;2023-05-07T03:02:11;4.30;;;3.90;;
14686;SDS011;7431;49.440;11.084;2023-05-07T03:04:37;4.87;;;4.40;;
14686;SDS011;7431;49.440;11.084;2023-05-07T03:07:03;4.00;;;3.70;;
14686;SDS011;7431;49.440;11.084;2023-05-07T03:09:29;4.53;;;4.13;;
14686;SDS011;7431;49.440;11.084;2023-05-07T03:11:56;4.90;;;4.50;;
14686;SDS011;7431;49.440;11.084;2023-05-07T03:14:22;4.73;;;4.33;;
14686;SDS011;7431;49.440;11.084;2023-05-07T03:16:48;5.10;;;4.60;;
14686;SDS011;7431;49.440;11.084;2023-05-07T03:19:15;4.33;;;3.93;;
14686;SDS011;7431;49.440;11.084;2023-05-07T03:21:41;4.97;;;4.57;;
14686;SDS011;7431;49.440;11.084;2023-05-07T03:24:07;5.00;;;4.50;;
14686;SDS011;7431;49.440;11.084;2023-05-07T03:26:33;5.43;;;4.60;;
14686;SDS011;7431;49.440;11.084;2023-05-07T03:28:58;5.00;;;4.53;;
14686;SDS011;7431;49.440;11.084;2023-05-07T03:31:25;5.73;;;5.10;;
14686;SDS011;7431;49.440;11.084;2023-05-07T03:33:51;5.77;;;4.63;;
14686;SDS011;7431;49.440;11.084;2023-05-07T03:36:17;5.07;;;4.63;;
14686;SDS011;7431;49.440;11.084;2023-05-07T03:38:43;5.80;;;5.20;;
14686;SDS011;7431;49.440;11.084;2023-05-07T03:41:09;5.43;;;4.93;;
14686;SDS011;7431;49.440;11.084;2023-05-07T03:43:35;5.23;;;4.73;;
14686;SDS011;7431;49.440;11.084;2023-05-07T03:46:01;4.83;;;4.43;;
14686;SDS011;7431;49.440;11.084;2023-05-07T03:48:27;5.30;;;4.80;;
14686;SDS011;7431;49.440;11.084;2023-05-07T03:50:53;5.30;;;4.90;;
14686;SDS011;7431;49.440;11.084;2023-05-07T03:53:19;5.20;;;4.80;;
14686;SDS011;7431;49.440;11.084;2023-05-07T03:55:45;5.57;;;5.13;;
14686;SDS011;7431;49.440;11.084;2023-05-07T03:58:11;5.63;;;5.13;;
14686;SDS011;7431;49.440;11.084;2023-05-07T04:00:37;5.30;;;4.80;;
14686;SDS011;7431;49.440;11.084;2023-05-07T04:03:05;5.47;;;4.97;;
14686;SDS011;7431;49.440;11.084;2023-05-07T04:05:33;5.00;;;4.60;;
14686;SDS011;7431;49.440;11.084;2023-05-07T04:07:59;5.30;;;4.80;;
14686;SDS011;7431;49.440;11.084;2023-05-07T04:10:25;5.37;;;4.87;;
14686;SDS011;7431;49.440;11.084;2023-05-07T04:12:51;5.18;;;4.75;;
14686;SDS011;7431;49.440;11.084;2023-05-07T04:15:17;5.63;;;4.90;;
14686;SDS011;7431;49.440;11.084;2023-05-07T04:17:43;5.67;;;5.17;;
14686;SDS011;7431;49.440;11.084;2023-05-07T04:20:10;6.07;;;5.47;;
14686;SDS011;7431;49.440;11.084;2023-05-07T04:22:36;5.70;;;5.20;;
14686;SDS011;7431;49.440;11.084;2023-05-07T04:25:02;5.55;;;5.00;;
14686;SDS011;7431;49.440;11.084;2023-05-07T04:27:28;5.13;;;4.63;;
14686;SDS011;7431;49.440;11.084;2023-05-07T04:29:54;5.47;;;4.97;;
14686;SDS011;7431;49.440;11.084;2023-05-07T04:32:21;5.68;;;5.18;;
14686;SDS011;7431;49.440;11.084;2023-05-07T04:34:47;5.70;;;5.20;;
14686;SDS011;7431;49.440;11.084;2023-05-07T04:37:13;6.43;;;5.38;;
14686;SDS011;7431;49.440;11.084;2023-05-07T04:39:39;5.07;;;4.68;;
14686;SDS011;7431;49.440;11.084;2023-05-07T04:42:05;7.25;;;5.35;;
14686;SDS011;7431;49.440;11.084;2023-05-07T04:44:33;5.63;;;5.13;;
14686;SDS011;7431;49.440;11.084;2023-05-07T04:46:59;7.57;;;5.40;;
14686;SDS011;7431;49.440;11.084;2023-05-07T04:49:25;6.20;;;5.65;;
14686;SDS011;7431;49.440;11.084;2023-05-07T04:51:51;6.70;;;6.00;;
14686;SDS011;7431;49.440;11.084;2023-05-07T04:54:17;5.90;;;5.40;;
14686;SDS011;7431;49.440;11.084;2023-05-07T04:56:43;6.18;;;5.57;;
14686;SDS011;7431;49.440;11.084;2023-05-07T04:59:09;6.00;;;5.45;;
14686;SDS011;7431;49.440;11.084;2023-05-07T05:01:35;6.55;;;5.95;;
14686;SDS011;7431;49.440;11.084;2023-05-07T05:04:01;6.93;;;5.93;;
14686;SDS011;7431;49.440;11.084;2023-05-07T05:06:27;6.88;;;6.18;;
14686;SDS011;7431;49.440;11.084;2023-05-07T05:08:53;7.43;;;6.40;;
14686;SDS011;7431;49.440;11.084;2023-05-07T05:11:19;6.90;;;6.22;;
14686;SDS011;7431;49.440;11.084;2023-05-07T05:13:45;6.32;;;5.68;;
14686;SDS011;7431;49.440;11.084;2023-05-07T05:16:14;6.78;;;6.18;;
14686;SDS011;7431;49.440;11.084;2023-05-07T05:18:40;6.50;;;5.95;;
14686;SDS011;7431;49.440;11.084;2023-05-07T05:21:06;6.20;;;5.70;;
14686;SDS011;7431;49.440;11.084;2023-05-07T05:23:32;6.43;;;5.82;;
14686;SDS011;7431;49.440;11.084;2023-05-07T05:25:58;6.68;;;5.93;;
14686;SDS011;7431;49.440;11.084;2023-05-07T05:28:24;6.85;;;6.15;;
14686;SDS011;7431;49.440;11.084;2023-05-07T05:30:50;6.47;;;5.97;;
14686;SDS011;7431;49.440;11.084;2023-05-07T05:33:16;6.57;;;5.90;;
14686;SDS011;7431;49.440;11.084;2023-05-07T05:35:42;6.65;;;6.05;;
14686;SDS011;7431;49.440;11.084;2023-05-07T05:38:08;6.85;;;6.22;;
14686;SDS011;7431;49.440;11.084;2023-05-07T05:40:34;6.93;;;6.22;;
14686;SDS011;7431;49.440;11.084;2023-05-07T05:43:00;6.85;;;6.22;;
14686;SDS011;7431;49.440;11.084;2023-05-07T05:45:26;6.40;;;5.80;;
14686;SDS011;7431;49.440;11.084;2023-05-07T05:47:52;7.15;;;6.43;;
14686;SDS011;7431;49.440;11.084;2023-05-07T05:50:18;7.15;;;6.43;;
14686;SDS011;7431;49.440;11.084;2023-05-07T05:52:44;7.25;;;6.65;;
14686;SDS011;7431;49.440;11.084;2023-05-07T05:55:10;7.60;;;6.80;;
14686;SDS011;7431;49.440;11.084;2023-05-07T05:57:36;7.38;;;6.78;;
14686;SDS011;7431;49.440;11.084;2023-05-07T06:00:02;7.93;;;6.90;;
14686;SDS011;7431;49.440;11.084;2023-05-07T06:02:29;7.70;;;7.00;;
14686;SDS011;7431;49.440;11.084;2023-05-07T06:04:54;7.47;;;6.88;;
14686;SDS011;7431;49.440;11.084;2023-05-07T06:07:20;7.20;;;6.53;;
14686;SDS011;7431;49.440;11.084;2023-05-07T06:09:46;7.63;;;6.88;;
14686;SDS011;7431;49.440;11.084;2023-05-07T06:12:12;7.10;;;6.40;;
14686;SDS011;7431;49.440;11.084;2023-05-07T06:14:38;7.28;;;6.60;;
14686;SDS011;7431;49.440;11.084;2023-05-07T06:17:06;7.63;;;6.93;;
14686;SDS011;7431;49.440;11.084;2023-05-07T06:19:32;7.45;;;6.60;;
14686;SDS011;7431;49.440;11.084;2023-05-07T06:21:58;7.68;;;6.97;;
14686;SDS011;7431;49.440;11.084;2023-05-07T06:24:26;7.15;;;6.45;;
14686;SDS011;7431;49.440;11.084;2023-05-07T06:26:52;7.20;;;6.60;;
14686;SDS011;7431;49.440;11.084;2023-05-07T06:29:18;7.53;;;6.82;;
14686;SDS011;7431;49.440;11.084;2023-05-07T06:31:44;7.15;;;6.43;;
14686;SDS011;7431;49.440;11.084;2023-05-07T06:34:10;7.10;;;6.47;;
14686;SDS011;7431;49.440;11.084;2023-05-07T06:36:39;7.68;;;6.93;;
14686;SDS011;7431;49.440;11.084;2023-05-07T06:39:05;7.43;;;6.82;;
14686;SDS011;7431;49.440;11.084;2023-05-07T06:41:31;7.40;;;6.70;;
14686;SDS011;7431;49.440;11.084;2023-05-07T06:43:57;7.75;;;6.47;;
14686;SDS011;7431;49.440;11.084;2023-05-07T06:46:23;6.85;;;6.03;;
14686;SDS011;7431;49.440;11.084;2023-05-07T06:48:49;6.65;;;6.05;;
14686;SDS011;7431;49.440;11.084;2023-05-07T06:51:15;7.15;;;6.55;;
14686;SDS011;7431;49.440;11.084;2023-05-07T06:53:41;6.80;;;6.18;;
14686;SDS011;7431;49.440;11.084;2023-05-07T06:56:07;6.63;;;6.00;;
14686;SDS011;7431;49.440;11.084;2023-05-07T06:58:33;6.10;;;5.60;;
14686;SDS011;7431;49.440;11.084;2023-05-07T07:00:59;6.93;;;5.90;;
14686;SDS011;7431;49.440;11.084;2023-05-07T07:03:25;6.00;;;5.50;;
14686;SDS011;7431;49.440;11.084;2023-05-07T07:05:51;6.00;;;5.20;;
14686;SDS011;7431;49.440;11.084;2023-05-07T07:08:18;5.97;;;5.15;;
14686;SDS011;7431;49.440;11.084;2023-05-07T07:10:46;5.53;;;5.03;;
14686;SDS011;7431;49.440;11.084;2023-05-07T07:13:12;5.63;;;5.13;;
14686;SDS011;7431;49.440;11.084;2023-05-07T07:15:38;5.90;;;5.35;;
14686;SDS011;7431;49.440;11.084;2023-05-07T07:18:04;5.63;;;5.13;;
14686;SDS011;7431;49.440;11.084;2023-05-07T07:20:30;6.85;;;5.68;;
14686;SDS011;7431;49.440;11.084;2023-05-07T07:22:56;5.85;;;5.35;;
14686;SDS011;7431;49.440;11.084;2023-05-07T07:25:22;6.18;;;5.57;;
14686;SDS011;7431;49.440;11.084;2023-05-07T07:27:48;5.80;;;5.30;;
14686;SDS011;7431;49.440;11.084;2023-05-07T07:30:15;5.65;;;5.00;;
14686;SDS011;7431;49.440;11.084;2023-05-07T07:32:41;4.82;;;4.40;;
14686;SDS011;7431;49.440;11.084;2023-05-07T07:35:07;5.13;;;4.72;;
14686;SDS011;7431;49.440;11.084;2023-05-07T07:37:34;4.90;;;4.50;;
14686;SDS011;7431;49.440;11.084;2023-05-07T07:40:00;5.97;;;4.82;;
14686;SDS011;7431;49.440;11.084;2023-05-07T07:42:26;5.28;;;4.80;;
14686;SDS011;7431;49.440;11.084;2023-05-07T07:44:52;5.28;;;4.88;;
14686;SDS011;7431;49.440;11.084;2023-05-07T07:47:18;5.32;;;4.93;;
14686;SDS011;7431;49.440;11.084;2023-05-07T07:49:44;5.70;;;5.20;;
14686;SDS011;7431;49.440;11.084;2023-05-07T07:52:10;5.93;;;5.32;;
14686;SDS011;7431;49.440;11.084;2023-05-07T07:54:36;5.68;;;5.15;;
14686;SDS011;7431;49.440;11.084;2023-05-07T07:57:02;5.85;;;5.28;;
14686;SDS011;7431;49.440;11.084;2023-05-07T07:59:28;5.38;;;4.88;;
14686;SDS011;7431;49.440;11.084;2023-05-07T08:01:54;5.72;;;5.20;;
14686;SDS011;7431;49.440;11.084;2023-05-07T08:04:21;6.00;;;5.40;;
14686;SDS011;7431;49.440;11.084;2023-05-07T08:06:48;5.72;;;4.97;;
14686;SDS011;7431;49.440;11.084;2023-05-07T08:09:14;7.05;;;5.18;;
14686;SDS011;7431;49.440;11.084;2023-05-07T08:11:40;5.68;;;5.18;;
14686;SDS011;7431;49.440;11.084;2023-05-07T08:14:06;8.18;;;4.82;;
14686;SDS011;7431;49.440;11.084;2023-05-07T08:16:32;5.15;;;4.68;;
14686;SDS011;7431;49.440;11.084;2023-05-07T08:18:58;5.43;;;5.03;;
14686;SDS011;7431;49.440;11.084;2023-05-07T08:21:24;5.15;;;4.75;;
14686;SDS011;7431;49.440;11.084;2023-05-07T08:23:51;5.55;;;5.15;;
14686;SDS011;7431;49.440;11.084;2023-05-07T08:26:17;4.80;;;4.40;;
14686;SDS011;7431;49.440;11.084;2023-05-07T08:28:43;5.05;;;4.25;;
14686;SDS011;7431;49.440;11.084;2023-05-07T08:31:09;6.97;;;5.05;;
14686;SDS011;7431;49.440;11.084;2023-05-07T08:33:34;5.03;;;4.63;;
14686;SDS011;7431;49.440;11.084;2023-05-07T08:36:00;5.75;;;4.20;;
14686;SDS011;7431;49.440;11.084;2023-05-07T08:38:26;5.13;;;4.63;;
14686;SDS011;7431;49.440;11.084;2023-05-07T08:40:53;5.28;;;4.78;;
14686;SDS011;7431;49.440;11.084;2023-05-07T08:43:19;5.40;;;4.90;;
14686;SDS011;7431;49.440;11.084;2023-05-07T08:45:45;4.88;;;4.00;;
14686;SDS011;7431;49.440;11.084;2023-05-07T08:48:15;4.78;;;4.38;;
14686;SDS011;7431;49.440;11.084;2023-05-07T08:50:41;4.18;;;3.88;;
14686;SDS011;7431;49.440;11.084;2023-05-07T08:53:07;4.95;;;4.53;;
14686;SDS011;7431;49.440;11.084;2023-05-07T08:55:34;4.25;;;3.95;;
14686;SDS011;7431;49.440;11.084;2023-05-07T08:58:00;4.10;;;3.70;;
14686;SDS011;7431;49.440;11.084;2023-05-07T09:00:26;4.10;;;3.70;;
14686;SDS011;7431;49.440;11.084;2023-05-07T09:02:52;4.45;;;4.05;;
14686;SDS011;7431;49.440;11.084;2023-05-07T09:05:19;4.07;;;3.78;;
14686;SDS011;7431;49.440;11.084;2023-05-07T09:07:45;4.90;;;3.97;;
14686;SDS011;7431;49.440;11.084;2023-05-07T09:10:12;4.00;;;3.70;;
14686;SDS011;7431;49.440;11.084;2023-05-07T09:12:38;3.90;;;3.60;;
14686;SDS011;7431;49.440;11.084;2023-05-07T09:15:04;3.58;;;3.22;;
14686;SDS011;7431;49.440;11.084;2023-05-07T09:17:30;3.50;;;3.22;;
14686;SDS011;7431;49.440;11.084;2023-05-07T09:20:01;4.07;;;3.67;;
14686;SDS011;7431;49.440;11.084;2023-05-07T09:22:31;4.00;;;3.70;;
14686;SDS011;7431;49.440;11.084;2023-05-07T09:24:57;3.60;;;3.30;;
14686;SDS011;7431;49.440;11.084;2023-05-07T09:27:24;3.70;;;3.40;;
14686;SDS011;7431;49.440;11.084;2023-05-07T09:29:51;3.50;;;3.20;;
14686;SDS011;7431;49.440;11.084;2023-05-07T09:32:17;3.67;;;3.38;;
14686;SDS011;7431;49.440;11.084;2023-05-07T09:34:43;3.88;;;3.17;;
14686;SDS011;7431;49.440;11.084;2023-05-07T09:37:10;3.47;;;3.20;;
14686;SDS011;7431;49.440;11.084;2023-05-07T09:39:38;2.80;;;2.60;;
14686;SDS011;7431;49.440;11.084;2023-05-07T09:42:05;3.50;;;2.95;;
14686;SDS011;7431;49.440;11.084;2023-05-07T09:44:31;4.13;;;3.72;;
14686;SDS011;7431;49.440;11.084;2023-05-07T09:46:57;3.47;;;3.17;;
14686;SDS011;7431;49.440;11.084;2023-05-07T09:49:25;4.18;;;3.85;;
14686;SDS011;7431;49.440;11.084;2023-05-07T09:51:55;5.60;;;4.30;;
14686;SDS011;7431;49.440;11.084;2023-05-07T09:54:24;4.53;;;4.18;;
14686;SDS011;7431;49.440;11.084;2023-05-07T09:56:51;5.35;;;4.30;;
14686;SDS011;7431;49.440;11.084;2023-05-07T09:59:18;4.57;;;4.22;;
14686;SDS011;7431;49.440;11.084;2023-05-07T10:01:44;4.10;;;3.72;;
14686;SDS011;7431;49.440;11.084;2023-05-07T10:04:11;4.18;;;3.78;;
14686;SDS011;7431;49.440;11.084;2023-05-07T10:06:37;3.65;;;3.30;;
14686;SDS011;7431;49.440;11.084;2023-05-07T10:09:04;3.85;;;3.55;;
14686;SDS011;7431;49.440;11.084;2023-05-07T10:11:31;2.65;;;2.45;;
14686;SDS011;7431;49.440;11.084;2023-05-07T10:13:58;3.67;;;3.20;;
14686;SDS011;7431;49.440;11.084;2023-05-07T10:16:27;4.88;;;4.43;;
14686;SDS011;7431;49.440;11.084;2023-05-07T10:18:53;5.30;;;4.80;;
14686;SDS011;7431;49.440;11.084;2023-05-07T10:21:20;5.07;;;4.50;;
14686;SDS011;7431;49.440;11.084;2023-05-07T10:23:49;5.78;;;4.72;;
14686;SDS011;7431;49.440;11.084;2023-05-07T10:26:15;4.70;;;4.28;;
14686;SDS011;7431;49.440;11.084;2023-05-07T10:28:43;3.35;;;3.05;;
14686;SDS011;7431;49.440;11.084;2023-05-07T10:31:15;3.35;;;3.08;;
14686;SDS011;7431;49.440;11.084;2023-05-07T10:33:44;3.10;;;2.80;;
14686;SDS011;7431;49.440;11.084;2023-05-07T10:36:11;3.80;;;3.50;;
14686;SDS011;7431;49.440;11.084;2023-05-07T10:38:37;3.50;;;3.20;;
14686;SDS011;7431;49.440;11.084;2023-05-07T10:41:05;3.75;;;3.00;;
14686;SDS011;7431;49.440;11.084;2023-05-07T10:43:38;3.40;;;3.10;;
14686;SDS011;7431;49.440;11.084;2023-05-07T10:46:14;3.85;;;2.90;;
14686;SDS011;7431;49.440;11.084;2023-05-07T10:51:26;4.55;;;4.00;;
14686;SDS011;7431;49.440;11.084;2023-05-07T10:56:36;4.60;;;4.20;;
14686;SDS011;7431;49.440;11.084;2023-05-07T11:01:56;5.00;;;4.10;;
14686;SDS011;7431;49.440;11.084;2023-05-07T11:04:28;4.15;;;3.75;;
14686;SDS011;7431;49.440;11.084;2023-05-07T11:12:16;4.03;;;3.70;;
14686;SDS011;7431;49.440;11.084;2023-05-07T11:14:45;4.68;;;4.28;;
14686;SDS011;7431;49.440;11.084;2023-05-07T11:17:11;3.72;;;3.42;;
14686;SDS011;7431;49.440;11.084;2023-05-07T11:19:54;7.30;;;6.10;;
14686;SDS011;7431;49.440;11.084;2023-05-07T11:25:01;3.85;;;3.53;;
14686;SDS011;7431;49.440;11.084;2023-05-07T11:27:28;5.68;;;4.07;;
14686;SDS011;7431;49.440;11.084;2023-05-07T11:29:55;3.75;;;3.45;;
14686;SDS011;7431;49.440;11.084;2023-05-07T11:32:24;3.92;;;3.45;;
14686;SDS011;7431;49.440;11.084;2023-05-07T11:34:54;4.55;;;4.10;;
14686;SDS011;7431;49.440;11.084;2023-05-07T11:37:20;7.97;;;5.57;;
14686;SDS011;7431;49.440;11.084;2023-05-07T11:39:46;4.68;;;3.80;;
14686;SDS011;7431;49.440;11.084;2023-05-07T11:42:32;5.00;;;3.70;;
14686;SDS011;7431;49.440;11.084;2023-05-07T11:44:58;3.95;;;3.50;;
14686;SDS011;7431;49.440;11.084;2023-05-07T11:47:24;3.78;;;3.47;;
14686;SDS011;7431;49.440;11.084;2023-05-07T11:49:51;3.17;;;2.97;;
14686;SDS011;7431;49.440;11.084;2023-05-07T11:52:18;3.22;;;2.83;;
14686;SDS011;7431;49.440;11.084;2023-05-07T11:54:50;3.38;;;3.08;;
14686;SDS011;7431;49.440;11.084;2023-05-07T11:57:17;3.97;;;3.63;;
14686;SDS011;7431;49.440;11.084;2023-05-07T11:59:43;4.82;;;4.35;;
14686;SDS011;7431;49.440;11.084;2023-05-07T12:02:15;3.63;;;3.33;;
14686;SDS011;7431;49.440;11.084;2023-05-07T12:04:41;5.13;;;3.83;;
14686;SDS011;7431;49.440;11.084;2023-05-07T12:07:13;3.67;;;3.40;;
14686;SDS011;7431;49.440;11.084;2023-05-07T12:09:43;3.97;;;3.58;;
14686;SDS011;7431;49.440;11.084;2023-05-07T12:12:09;3.47;;;3.17;;
14686;SDS011;7431;49.440;11.084;2023-05-07T12:14:42;3.45;;;3.15;;
14686;SDS011;7431;49.440;11.084;2023-05-07T12:17:08;3.45;;;3.20;;
14686;SDS011;7431;49.440;11.084;2023-05-07T12:19:34;3.47;;;2.90;;
14686;SDS011;7431;49.440;11.084;2023-05-07T12:22:01;3.20;;;2.97;;
14686;SDS011;7431;49.440;11.084;2023-05-07T12:24:28;3.00;;;2.70;;
14686;SDS011;7431;49.440;11.084;2023-05-07T12:26:54;4.80;;;2.88;;
14686;SDS011;7431;49.440;11.084;2023-05-07T12:29:23;3.50;;;3.15;;
14686;SDS011;7431;49.440;11.084;2023-05-07T12:31:52;5.72;;;3.78;;
14686;SDS011;7431;49.440;11.084;2023-05-07T12:34:18;3.40;;;3.10;;
14686;SDS011;7431;49.440;11.084;2023-05-07T12:36:44;3.33;;;2.97;;
14686;SDS011;7431;49.440;11.084;2023-05-07T12:39:10;3.10;;;2.90;;
14686;SDS011;7431;49.440;11.084;2023-05-07T12:41:55;2.67;;;2.45;;
14686;SDS011;7431;49.440;11.084;2023-05-07T12:44:23;2.95;;;2.70;;
14686;SDS011;7431;49.440;11.084;2023-05-07T12:46:51;4.97;;;4.50;;
14686;SDS011;7431;49.440;11.084;2023-05-07T12:49:17;3.88;;;3.58;;
14686;SDS011;7431;49.440;11.084;2023-05-07T12:51:43;3.78;;;3.47;;
14686;SDS011;7431;49.440;11.084;2023-05-07T12:54:09;3.45;;;3.22;;
14686;SDS011;7431;49.440;11.084;2023-05-07T12:56:35;3.72;;;3.30;;
14686;SDS011;7431;49.440;11.084;2023-05-07T12:59:02;3.78;;;3.47;;
14686;SDS011;7431;49.440;11.084;2023-05-07T13:01:29;3.47;;;3.08;;
14686;SDS011;7431;49.440;11.084;2023-05-07T13:03:55;3.83;;;3.20;;
14686;SDS011;7431;49.440;11.084;2023-05-07T13:06:21;3.83;;;3.40;;
14686;SDS011;7431;49.440;11.084;2023-05-07T13:08:47;3.33;;;2.90;;
14686;SDS011;7431;49.440;11.084;2023-05-07T13:11:13;4.00;;;3.05;;
14686;SDS011;7431;49.440;11.084;2023-05-07T13:13:40;4.15;;;3.53;;
14686;SDS011;7431;49.440;11.084;2023-05-07T13:16:07;3.42;;;3.15;;
14686;SDS011;7431;49.440;11.084;2023-05-07T13:18:33;3.90;;;3.60;;
14686;SDS011;7431;49.440;11.084;2023-05-07T13:21:02;3.90;;;3.60;;
14686;SDS011;7431;49.440;11.084;2023-05-07T13:23:28;3.90;;;3.60;;
14686;SDS011;7431;49.440;11.084;2023-05-07T13:25:54;3.92;;;3.60;;
14686;SDS011;7431;49.440;11.084;2023-05-07T13:28:21;8.32;;;7.57;;
14686;SDS011;7431;49.440;11.084;2023-05-07T13:30:47;9.38;;;8.48;;
14686;SDS011;7431;49.440;11.084;2023-05-07T13:33:13;4.63;;;4.22;;
14686;SDS011;7431;49.440;11.084;2023-05-07T13:35:40;4.03;;;3.72;;
14686;SDS011;7431;49.440;11.084;2023-05-07T13:38:07;4.95;;;4.07;;
14686;SDS011;7431;49.440;11.084;2023-05-07T13:40:33;4.68;;;3.15;;
14686;SDS011;7431;49.440;11.084;2023-05-07T13:42:59;3.58;;;3.28;;
14686;SDS011;7431;49.440;11.084;2023-05-07T13:45:29;3.47;;;3.17;;
14686;SDS011;7431;49.440;11.084;2023-05-07T13:47:55;3.60;;;3.30;;
14686;SDS011;7431;49.440;11.084;2023-05-07T13:50:21;3.75;;;3.45;;
14686;SDS011;7431;49.440;11.084;2023-05-07T13:52:47;4.85;;;4.40;;
14686;SDS011;7431;49.440;11.084;2023-05-07T13:55:17;5.80;;;4.00;;
14686;SDS011;7431;49.440;11.084;2023-05-07T13:57:43;4.00;;;3.70;;
14686;SDS011;7431;49.440;11.084;2023-05-07T14:00:10;5.78;;;4.32;;
14686;SDS011;7431;49.440;11.084;2023-05-07T14:02:36;3.70;;;3.40;;
14686;SDS011;7431;49.440;11.084;2023-05-07T14:05:02;5.45;;;4.95;;
14686;SDS011;7431;49.440;11.084;2023-05-07T14:07:28;6.15;;;5.53;;
14686;SDS011;7431;49.440;11.084;2023-05-07T14:09:54;4.20;;;3.90;;
14686;SDS011;7431;49.440;11.084;2023-05-07T14:12:23;4.55;;;3.30;;
14686;SDS011;7431;49.440;11.084;2023-05-07T14:14:49;3.90;;;3.60;;
14686;SDS011;7431;49.440;11.084;2023-05-07T14:17:18;4.20;;;3.80;;
14686;SDS011;7431;49.440;11.084;2023-05-07T14:19:45;3.67;;;3.38;;
14686;SDS011;7431;49.440;11.084;2023-05-07T14:22:13;3.42;;;3.13;;
14686;SDS011;7431;49.440;11.084;2023-05-07T14:24:40;3.63;;;3.22;;
14686;SDS011;7431;49.440;11.084;2023-05-07T14:27:06;3.53;;;3.00;;
14686;SDS011;7431;49.440;11.084;2023-05-07T14:29:32;3.33;;;3.10;;
14686;SDS011;7431;49.440;11.084;2023-05-07T14:32:00;3.50;;;3.17;;
14686;SDS011;7431;49.440;11.084;2023-05-07T14:34:26;3.58;;;3.28;;
14686;SDS011;7431;49.440;11.084;2023-05-07T14:36:52;3.42;;;3.13;;
14686;SDS011;7431;49.440;11.084;2023-05-07T14:39:18;3.33;;;3.08;;
14686;SDS011;7431;49.440;11.084;2023-05-07T14:41:44;3.90;;;3.50;;
14686;SDS011;7431;49.440;11.084;2023-05-07T14:44:10;3.42;;;3.22;;
14686;SDS011;7431;49.440;11.084;2023-05-07T14:46:36;4.07;;;3.70;;
14686;SDS011;7431;49.440;11.084;2023-05-07T14:49:02;3.92;;;3.63;;
14686;SDS011;7431;49.440;11.084;2023-05-07T14:51:29;3.92;;;3.63;;
14686;SDS011;7431;49.440;11.084;2023-05-07T14:53:55;4.45;;;4.05;;
14686;SDS011;7431;49.440;11.084;2023-05-07T14:56:21;4.60;;;3.90;;
14686;SDS011;7431;49.440;11.084;2023-05-07T14:58:47;5.32;;;4.82;;
14686;SDS011;7431;49.440;11.084;2023-05-07T15:01:14;4.47;;;4.13;;